Time;durP1;ratioP1;P1;durP2;ratioP2;P2;SDS_P1;SDS_P2;PMS_P1;PMS_P2;Temp;Humidity;BMP_temperature;BMP_pressure;BME280_temperature;BME280_humidity;BME280_pressure;Samples;Min_cycle;Max_cycle;Signal;HPM_P1;HPM_P2
2022/12/06 00:01:35;;;;;;;13.40;8.73;;;6.90;99.90;;;;;;5034726;28;20422;-71
2022/12/06 00:04:04;;;;;;;14.27;11.17;;;6.90;99.90;;;;;;5034214;28;20540;-71
2022/12/06 00:06:31;;;;;;;13.50;10.43;;;6.80;99.90;;;;;;5035567;28;20537;-70
2022/12/06 00:08:58;;;;;;;13.40;11.03;;;6.80;99.90;;;;;;5031412;28;20438;-73
2022/12/06 00:11:32;;;;;;;11.70;9.73;;;6.80;99.90;;;;;;5032429;28;20467;-70
2022/12/06 00:14:06;;;;;;;12.80;10.13;;;6.80;99.90;;;;;;5034369;28;20546;-72
2022/12/06 00:16:33;;;;;;;13.37;9.13;;;6.90;99.90;;;;;;5037263;28;20449;-73
2022/12/06 00:18:59;;;;;;;12.53;10.87;;;6.90;99.90;;;;;;5035080;28;20789;-72
2022/12/06 00:21:30;;;;;;;11.47;9.57;;;6.90;99.90;;;;;;5036693;28;20675;-70
2022/12/06 00:23:58;;;;;;;15.10;10.17;;;7.00;99.90;;;;;;5032669;28;20454;-70
2022/12/06 00:26:24;;;;;;;12.80;10.10;;;6.90;99.90;;;;;;5035061;28;20457;-70
2022/12/06 00:28:55;;;;;;;12.13;10.80;;;7.00;99.90;;;;;;5034872;28;20801;-70
2022/12/06 00:31:22;;;;;;;13.47;9.40;;;7.00;99.90;;;;;;5034076;28;20440;-70
2022/12/06 00:33:48;;;;;;;12.97;10.17;;;7.00;99.90;;;;;;5035377;28;20475;-71
2022/12/06 00:36:17;;;;;;;13.90;9.90;;;7.00;99.90;;;;;;5034811;28;20461;-71
2022/12/06 00:38:44;;;;;;;11.83;9.50;;;6.90;99.90;;;;;;5034570;28;20807;-72
2022/12/06 00:41:11;;;;;;;11.80;10.20;;;6.90;99.90;;;;;;5033823;28;20889;-71
2022/12/06 00:43:38;;;;;;;14.83;10.67;;;7.00;99.90;;;;;;5035773;28;20466;-72
2022/12/06 00:46:06;;;;;;;12.43;9.67;;;7.10;99.90;;;;;;5037803;28;20450;-72
2022/12/06 00:48:31;;;;;;;13.00;10.60;;;7.10;99.90;;;;;;5033901;28;20434;-72
2022/12/06 00:50:57;;;;;;;12.23;9.50;;;7.10;99.90;;;;;;5033593;28;20450;-71
2022/12/06 00:53:23;;;;;;;14.10;9.67;;;7.10;99.90;;;;;;5032183;28;20215;-72
2022/12/06 00:55:49;;;;;;;13.60;9.93;;;7.10;99.90;;;;;;5033872;28;20184;-72
2022/12/06 00:58:15;;;;;;;13.67;10.20;;;7.10;99.90;;;;;;5035446;28;20573;-72
2022/12/06 01:00:41;;;;;;;18.20;10.00;;;7.10;99.90;;;;;;5031462;28;20611;-72
2022/12/06 01:03:07;;;;;;;14.73;9.73;;;7.00;99.90;;;;;;5033744;28;20450;-72
2022/12/06 01:05:38;;;;;;;12.50;9.07;;;7.00;99.90;;;;;;5034514;28;22118;-71
2022/12/06 01:08:04;;;;;;;13.30;9.67;;;7.10;99.90;;;;;;5033669;28;20461;-71
2022/12/06 01:10:29;;;;;;;11.83;8.33;;;7.10;99.90;;;;;;5037051;28;20446;-71
2022/12/06 01:12:55;;;;;;;13.83;9.30;;;7.20;99.90;;;;;;5032897;28;20461;-71
2022/12/06 01:15:20;;;;;;;13.10;10.30;;;7.20;99.90;;;;;;5032565;28;20223;-72
2022/12/06 01:17:46;;;;;;;15.83;9.87;;;7.10;99.90;;;;;;5033493;28;20192;-72
2022/12/06 01:20:11;;;;;;;13.20;9.73;;;7.20;99.90;;;;;;5031353;28;20187;-72
2022/12/06 01:22:37;;;;;;;11.37;9.03;;;7.10;99.90;;;;;;5032706;28;20200;-72
2022/12/06 01:25:03;;;;;;;14.90;10.40;;;7.20;99.90;;;;;;5036835;28;20226;-71
2022/12/06 01:27:28;;;;;;;14.00;9.37;;;7.10;99.90;;;;;;5030565;28;20260;-71
2022/12/06 01:29:54;;;;;;;12.37;10.40;;;7.00;99.90;;;;;;5037123;28;20224;-71
2022/12/06 01:32:19;;;;;;;11.27;9.70;;;7.10;99.90;;;;;;5031919;28;20721;-72
2022/12/06 01:34:45;;;;;;;12.40;9.30;;;7.20;99.90;;;;;;5019306;28;20677;-71
2022/12/06 01:37:11;;;;;;;13.17;10.07;;;7.20;99.90;;;;;;5034994;28;20207;-71
2022/12/06 01:39:37;;;;;;;12.03;10.23;;;7.20;99.90;;;;;;5032799;28;20188;-72
2022/12/06 01:42:02;;;;;;;14.37;10.90;;;7.20;99.90;;;;;;5031844;28;20457;-71
2022/12/06 01:44:48;;;;;;;11.73;9.90;;;7.20;99.90;;;;;;5037178;28;20451;-71
2022/12/06 01:47:28;;;;;;;14.70;10.47;;;7.20;99.90;;;;;;5037924;28;20184;-70
2022/12/06 01:50:02;;;;;;;13.13;9.73;;;7.20;99.90;;;;;;5035268;28;21074;-71
2022/12/06 01:52:38;;;;;;;14.33;10.80;;;7.20;99.90;;;;;;5035146;28;20461;-71
2022/12/06 01:55:06;;;;;;;12.00;9.90;;;7.20;99.90;;;;;;5033584;28;20458;-71
2022/12/06 01:57:32;;;;;;;11.30;9.43;;;7.20;99.90;;;;;;5037547;28;20422;-71
2022/12/06 01:59:58;;;;;;;14.53;10.03;;;7.20;99.90;;;;;;5034404;28;20449;-71
2022/12/06 02:02:23;;;;;;;13.37;10.33;;;7.30;99.90;;;;;;5017049;28;20192;-73
2022/12/06 02:04:51;;;;;;;15.13;11.30;;;7.40;99.90;;;;;;5032924;28;20216;-73
2022/12/06 02:07:16;;;;;;;13.00;10.60;;;7.30;99.90;;;;;;5031225;28;20253;-70
2022/12/06 02:09:43;;;;;;;13.50;10.07;;;7.30;99.90;;;;;;5034575;28;20959;-71
2022/12/06 02:12:13;;;;;;;12.50;9.10;;;7.20;99.90;;;;;;5031656;28;20964;-71
2022/12/06 02:14:41;;;;;;;13.80;10.30;;;7.30;99.90;;;;;;5017312;28;20947;-72
2022/12/06 02:17:09;;;;;;;14.20;11.13;;;7.20;99.90;;;;;;5034381;28;20496;-71
2022/12/06 02:19:49;;;;;;;11.07;9.50;;;7.20;99.90;;;;;;5032765;28;20466;-71
2022/12/06 02:22:22;;;;;;;11.50;9.80;;;7.30;99.90;;;;;;5033572;28;21127;-71
2022/12/06 02:24:57;;;;;;;13.50;10.10;;;7.20;99.90;;;;;;5031706;28;20537;-71
2022/12/06 02:27:50;;;;;;;14.20;10.53;;;7.30;99.90;;;;;;5030738;28;20453;-71
2022/12/06 02:30:54;;;;;;;14.83;10.30;;;7.30;99.90;;;;;;5035285;28;20520;-71
2022/12/06 02:33:20;;;;;;;12.43;9.43;;;7.30;99.90;;;;;;5025433;28;20477;-71
2022/12/06 02:35:56;;;;;;;13.30;10.60;;;7.30;99.90;;;;;;5035413;28;20957;-71
2022/12/06 02:38:52;;;;;;;11.90;10.33;;;7.40;99.90;;;;;;5032183;28;20184;-71
2022/12/06 02:41:39;;;;;;;12.53;9.53;;;7.40;99.90;;;;;;5034905;28;20464;-71
2022/12/06 02:44:09;;;;;;;12.80;8.70;;;7.50;99.90;;;;;;5015434;28;21162;-71
2022/12/06 02:46:36;;;;;;;11.10;9.37;;;7.50;99.90;;;;;;5033933;28;20547;-71
2022/12/06 02:49:06;;;;;;;11.80;8.27;;;7.40;99.90;;;;;;5034916;28;20429;-71
2022/12/06 02:51:34;;;;;;;12.50;8.73;;;7.40;99.90;;;;;;5028099;28;20824;-71
2022/12/06 02:54:03;;;;;;;9.90;8.60;;;7.50;99.90;;;;;;5030330;28;20482;-72
2022/12/06 02:56:31;;;;;;;12.83;8.70;;;7.50;99.90;;;;;;5033936;28;20438;-72
2022/12/06 02:58:57;;;;;;;12.53;8.53;;;7.40;99.90;;;;;;5029510;28;20939;-71
2022/12/06 03:01:27;;;;;;;12.00;9.67;;;7.40;99.90;;;;;;5029674;28;20509;-71
2022/12/06 03:04:04;;;;;;;13.20;9.30;;;7.30;99.90;;;;;;5033162;28;20212;-71
2022/12/06 03:06:51;;;;;;;10.37;9.20;;;7.30;99.90;;;;;;5031985;28;20434;-71
2022/12/06 03:09:23;;;;;;;11.27;9.60;;;7.30;99.90;;;;;;5032723;28;20446;-71
2022/12/06 03:11:56;;;;;;;14.50;10.03;;;7.30;99.90;;;;;;5033014;28;20438;-70
2022/12/06 03:14:24;;;;;;;12.10;9.03;;;7.30;99.90;;;;;;5029510;28;20478;-71
2022/12/06 03:17:17;;;;;;;12.63;10.40;;;7.30;99.90;;;;;;5033445;28;20979;-72
2022/12/06 03:19:48;;;;;;;11.90;9.27;;;7.30;99.90;;;;;;5033883;28;20965;-71
2022/12/06 03:22:22;;;;;;;11.93;9.93;;;7.40;99.90;;;;;;5032346;28;21067;-73
2022/12/06 03:24:50;;;;;;;13.83;10.23;;;7.40;99.90;;;;;;5035250;28;20473;-71
2022/12/06 03:27:18;;;;;;;12.60;9.20;;;7.40;99.90;;;;;;5031010;28;20930;-71
2022/12/06 03:29:49;;;;;;;12.60;9.90;;;7.40;99.90;;;;;;5032642;28;20517;-71
2022/12/06 03:32:17;;;;;;;14.10;11.37;;;7.40;99.90;;;;;;5033728;28;20442;-71
2022/12/06 03:34:48;;;;;;;11.03;9.07;;;7.40;99.90;;;;;;5029971;28;20537;-70
2022/12/06 03:37:18;;;;;;;14.30;9.20;;;7.50;99.90;;;;;;5032111;28;20796;-70
2022/12/06 03:39:51;;;;;;;12.13;10.20;;;7.50;99.90;;;;;;5033163;28;20495;-73
2022/12/06 03:42:18;;;;;;;12.33;9.40;;;7.50;99.90;;;;;;5036164;28;20434;-73
2022/12/06 03:44:44;;;;;;;11.47;9.73;;;7.40;99.90;;;;;;5035899;28;20994;-73
2022/12/06 03:47:32;;;;;;;11.87;9.03;;;7.40;99.90;;;;;;5039953;28;21025;-72
2022/12/06 03:50:02;;;;;;;11.40;9.37;;;7.40;99.90;;;;;;4994055;28;20430;-72
2022/12/06 03:52:28;;;;;;;12.40;10.20;;;7.40;99.90;;;;;;5032292;28;20458;-72
2022/12/06 03:54:54;;;;;;;11.37;9.93;;;7.40;99.90;;;;;;5036262;28;20698;-72
2022/12/06 03:57:20;;;;;;;14.00;9.80;;;7.40;99.90;;;;;;5037629;28;20804;-72
2022/12/06 03:59:46;;;;;;;11.93;9.63;;;7.40;99.90;;;;;;5035397;28;20479;-73
2022/12/06 04:02:12;;;;;;;13.07;9.90;;;7.30;99.90;;;;;;5035935;28;20218;-72
2022/12/06 04:04:39;;;;;;;11.13;9.50;;;7.30;99.90;;;;;;5037433;28;20481;-71
2022/12/06 04:07:04;;;;;;;16.00;9.97;;;7.30;99.90;;;;;;5033919;28;20847;-71
2022/12/06 04:14:58;;;;;;;14.83;10.10;;;7.40;99.90;;;;;;5037198;28;20449;-71
2022/12/06 04:20:08;;;;;;;10.50;9.27;;;7.40;99.90;;;;;;5033341;28;20210;-72
2022/12/06 04:25:18;;;;;;;13.20;10.10;;;7.30;99.90;;;;;;5033335;28;20257;-72
2022/12/06 04:38:43;;;;;;;13.10;9.13;;;7.30;99.90;;;;;;5033655;28;20514;-74
2022/12/06 04:41:10;;;;;;;14.13;11.37;;;7.20;99.90;;;;;;5031294;28;20480;-72
2022/12/06 04:43:42;;;;;;;14.70;10.93;;;7.10;99.90;;;;;;5034898;28;20464;-73
2022/12/06 04:46:13;;;;;;;12.43;10.50;;;7.10;99.90;;;;;;5032883;28;20446;-72
2022/12/06 04:48:39;;;;;;;13.17;10.53;;;7.10;99.90;;;;;;5034654;28;20434;-72
2022/12/06 04:51:05;;;;;;;13.03;10.33;;;7.10;99.90;;;;;;5032847;28;20434;-72
2022/12/06 04:53:31;;;;;;;14.20;10.30;;;7.00;99.90;;;;;;5033119;28;20477;-72
2022/12/06 04:55:56;;;;;;;14.60;10.20;;;7.10;99.90;;;;;;5036140;28;20423;-72
2022/12/06 04:58:22;;;;;;;12.10;9.77;;;7.00;99.90;;;;;;5015911;28;20542;-72
2022/12/06 05:00:53;;;;;;;14.47;10.10;;;7.10;99.90;;;;;;5018338;28;20179;-72
2022/12/06 05:03:19;;;;;;;16.07;11.23;;;7.20;99.90;;;;;;5035938;28;20195;-72
2022/12/06 05:05:44;;;;;;;13.43;9.73;;;7.20;99.90;;;;;;5033064;28;20438;-71
2022/12/06 05:08:10;;;;;;;15.30;11.33;;;7.10;99.90;;;;;;5033905;28;20814;-71
2022/12/06 05:10:36;;;;;;;15.33;10.77;;;7.10;99.90;;;;;;5035552;28;20285;-71
2022/12/06 05:13:01;;;;;;;14.80;11.67;;;7.00;99.90;;;;;;5034027;28;20461;-72
2022/12/06 05:15:27;;;;;;;13.50;10.93;;;7.00;99.90;;;;;;5031909;28;20314;-72
2022/12/06 05:17:53;;;;;;;14.93;11.30;;;7.00;99.90;;;;;;5033714;28;20188;-71
2022/12/06 05:20:19;;;;;;;13.90;11.00;;;7.10;99.90;;;;;;5031757;28;20443;-71
2022/12/06 05:22:44;;;;;;;12.97;10.13;;;7.10;99.90;;;;;;5036003;28;20180;-71
2022/12/06 05:25:10;;;;;;;14.10;11.17;;;7.00;99.90;;;;;;5032220;28;20215;-71
2022/12/06 05:27:36;;;;;;;15.83;11.63;;;7.00;99.90;;;;;;5031991;28;20747;-69
2022/12/06 05:30:01;;;;;;;15.60;12.10;;;7.00;99.90;;;;;;5033397;28;20187;-71
2022/12/06 05:32:27;;;;;;;16.77;11.63;;;6.90;99.90;;;;;;5034096;28;20704;-70
2022/12/06 05:34:53;;;;;;;13.43;10.33;;;6.90;99.90;;;;;;5034088;28;20580;-69
2022/12/06 05:37:18;;;;;;;15.90;11.00;;;6.80;99.90;;;;;;5031637;28;20241;-70
2022/12/06 05:39:44;;;;;;;16.23;12.10;;;6.90;99.90;;;;;;5033989;28;20180;-72
2022/12/06 05:42:09;;;;;;;15.87;11.70;;;7.00;99.90;;;;;;5036205;28;20267;-72
2022/12/06 05:44:35;;;;;;;16.33;12.13;;;7.00;99.90;;;;;;5031751;28;20735;-72
2022/12/06 05:47:00;;;;;;;17.00;11.40;;;7.00;99.90;;;;;;5038217;28;20653;-72
2022/12/06 05:49:27;;;;;;;15.33;11.40;;;7.00;99.90;;;;;;5034661;28;20209;-72
2022/12/06 05:51:53;;;;;;;17.77;12.53;;;6.90;99.90;;;;;;5030742;28;20180;-72
2022/12/06 05:54:19;;;;;;;15.40;11.23;;;6.90;99.90;;;;;;5031466;28;20474;-72
2022/12/06 05:56:45;;;;;;;17.73;12.40;;;6.80;99.90;;;;;;5015133;28;20185;-72
2022/12/06 05:59:10;;;;;;;16.57;12.13;;;6.80;99.90;;;;;;5034036;28;20438;-72
2022/12/06 06:01:36;;;;;;;17.57;13.30;;;6.90;99.90;;;;;;5031907;28;20191;-71
2022/12/06 06:04:01;;;;;;;17.50;12.57;;;6.90;99.90;;;;;;5033486;28;20430;-71
2022/12/06 06:06:27;;;;;;;17.27;12.53;;;6.90;99.90;;;;;;5032797;28;20776;-71
2022/12/06 06:08:53;;;;;;;16.40;12.57;;;7.00;99.90;;;;;;5033222;28;20202;-71
2022/12/06 06:11:19;;;;;;;18.03;12.67;;;6.90;99.90;;;;;;5016578;28;20179;-70
2022/12/06 06:13:45;;;;;;;17.13;12.33;;;6.90;99.90;;;;;;5026670;28;21017;-71
2022/12/06 06:16:10;;;;;;;16.53;12.10;;;6.90;99.90;;;;;;5028135;28;20450;-72
2022/12/06 06:18:36;;;;;;;18.00;13.77;;;7.00;99.90;;;;;;5028933;28;20269;-70
2022/12/06 06:21:02;;;;;;;17.27;12.93;;;6.90;99.90;;;;;;5032644;28;20180;-70
2022/12/06 06:23:28;;;;;;;17.70;12.70;;;6.90;99.90;;;;;;5034952;28;20227;-71
2022/12/06 06:25:54;;;;;;;16.00;12.60;;;6.90;99.90;;;;;;5030761;28;20497;-70
2022/12/06 06:28:20;;;;;;;16.63;12.63;;;6.90;99.90;;;;;;5033533;28;20442;-71
2022/12/06 06:30:46;;;;;;;17.20;12.87;;;6.90;99.90;;;;;;5028337;28;20202;-70
2022/12/06 06:33:13;;;;;;;19.80;13.97;;;6.90;99.90;;;;;;5008705;28;20469;-70
2022/12/06 06:35:39;;;;;;;15.17;11.90;;;6.90;99.90;;;;;;5031831;28;20473;-70
2022/12/06 06:38:05;;;;;;;14.90;12.23;;;7.00;99.90;;;;;;5032454;28;21280;-70
2022/12/06 06:40:31;;;;;;;17.40;13.30;;;7.00;99.90;;;;;;5010729;28;20469;-71
2022/12/06 06:43:16;;;;;;;21.67;14.17;;;6.90;99.90;;;;;;5026457;28;20797;-71
2022/12/06 06:45:50;;;;;;;18.70;13.77;;;6.90;99.90;;;;;;5032395;28;20950;-71
2022/12/06 06:48:16;;;;;;;19.43;13.00;;;6.90;99.90;;;;;;5034969;28;20421;-71
2022/12/06 06:50:42;;;;;;;20.30;13.57;;;6.80;99.90;;;;;;5033646;28;20437;-71
2022/12/06 06:53:08;;;;;;;19.97;13.63;;;6.90;99.90;;;;;;5019158;28;20223;-71
2022/12/06 06:55:35;;;;;;;23.10;14.90;;;7.00;99.90;;;;;;5035364;28;20194;-72
2022/12/06 06:58:01;;;;;;;18.30;12.60;;;7.00;99.90;;;;;;5034905;28;20469;-71
2022/12/06 07:00:26;;;;;;;16.17;12.30;;;6.90;99.90;;;;;;5017048;28;20419;-71
2022/12/06 07:02:52;;;;;;;19.70;13.50;;;6.90;99.90;;;;;;5007997;28;20449;-71
2022/12/06 07:05:17;;;;;;;19.73;13.30;;;6.90;99.90;;;;;;5031562;28;20203;-70
2022/12/06 07:07:45;;;;;;;19.70;14.23;;;6.90;99.90;;;;;;5016365;28;20294;-71
2022/12/06 07:10:11;;;;;;;20.57;14.07;;;6.90;99.90;;;;;;5033146;28;20713;-71
2022/12/06 07:12:37;;;;;;;22.60;12.77;;;6.90;99.90;;;;;;5029691;28;20472;-71
2022/12/06 07:15:04;;;;;;;23.27;14.50;;;6.90;99.90;;;;;;5034753;28;20472;-71
2022/12/06 07:17:29;;;;;;;17.90;12.90;;;6.90;99.90;;;;;;5035112;28;20183;-71
2022/12/06 07:19:55;;;;;;;17.73;13.33;;;6.90;99.90;;;;;;5020194;28;20495;-70
2022/12/06 07:22:20;;;;;;;17.37;13.27;;;6.90;99.90;;;;;;5023366;28;20221;-71
2022/12/06 07:24:46;;;;;;;17.60;13.80;;;7.00;99.90;;;;;;5036698;28;20873;-70
2022/12/06 07:27:12;;;;;;;19.83;14.00;;;6.80;99.90;;;;;;5021234;28;20176;-71
2022/12/06 07:29:37;;;;;;;20.27;14.27;;;6.90;99.90;;;;;;5037219;28;20183;-72
2022/12/06 07:32:03;;;;;;;17.30;12.67;;;6.90;99.90;;;;;;5035546;28;20185;-72
2022/12/06 07:34:29;;;;;;;17.27;13.03;;;7.00;99.90;;;;;;5037533;28;20707;-72
2022/12/06 07:36:54;;;;;;;16.60;12.53;;;6.90;99.90;;;;;;5038038;28;20224;-72
2022/12/06 07:39:20;;;;;;;16.23;11.50;;;6.90;99.90;;;;;;5033408;28;20434;-71
2022/12/06 07:47:15;;;;;;;15.80;12.33;;;7.00;99.90;;;;;;5039660;28;20533;-71
2022/12/06 07:49:40;;;;;;;16.90;11.20;;;7.10;99.90;;;;;;5039756;28;20446;-71
2022/12/06 07:52:06;;;;;;;14.57;11.07;;;6.80;99.90;;;;;;5039096;28;20441;-71
2022/12/06 07:54:31;;;;;;;15.50;11.67;;;6.80;99.90;;;;;;5020384;28;20235;-71
2022/12/06 07:56:57;;;;;;;14.17;10.60;;;6.90;99.90;;;;;;5037766;28;20267;-71
2022/12/06 07:59:23;;;;;;;15.97;11.37;;;6.80;99.90;;;;;;5037783;28;20265;-71
2022/12/06 08:01:50;;;;;;;14.27;10.40;;;6.80;99.90;;;;;;5036697;28;20242;-70
2022/12/06 08:04:17;;;;;;;14.40;10.33;;;6.80;99.90;;;;;;5038580;28;20550;-70
2022/12/06 08:06:42;;;;;;;11.47;8.40;;;6.90;99.90;;;;;;5036263;28;20438;-70
2022/12/06 08:09:08;;;;;;;12.87;8.37;;;7.00;99.90;;;;;;5037126;28;20457;-70
2022/12/06 08:11:34;;;;;;;11.37;8.53;;;6.80;99.90;;;;;;5035186;28;20215;-69
2022/12/06 08:14:00;;;;;;;12.53;7.77;;;6.90;99.90;;;;;;5019536;28;20611;-70
2022/12/06 08:16:26;;;;;;;11.40;8.30;;;6.90;99.90;;;;;;5039049;28;20452;-69
2022/12/06 08:18:51;;;;;;;7.50;6.07;;;6.90;99.90;;;;;;5033444;28;20265;-70
2022/12/06 08:21:17;;;;;;;8.63;6.53;;;6.90;99.90;;;;;;5040260;28;20186;-70
2022/12/06 08:23:43;;;;;;;9.00;6.20;;;6.90;99.90;;;;;;5033422;28;20208;-68
2022/12/06 08:26:15;;;;;;;10.57;6.13;;;6.90;99.90;;;;;;5039751;28;20935;-69
2022/12/06 08:28:42;;;;;;;8.27;5.80;;;7.00;99.90;;;;;;5031111;28;20237;-68
2022/12/06 08:31:19;;;;;;;6.83;5.00;;;7.10;99.90;;;;;;5038802;28;20435;-69
2022/12/06 08:33:45;;;;;;;7.93;5.53;;;7.10;99.90;;;;;;5033192;28;21683;-68
2022/12/06 08:36:14;;;;;;;11.23;5.43;;;7.20;99.90;;;;;;5037332;28;20848;-70
2022/12/06 08:38:40;;;;;;;7.50;5.53;;;7.20;99.90;;;;;;5038005;28;20423;-68
2022/12/06 08:41:54;;;;;;;10.13;6.00;;;7.20;99.90;;;;;;5034458;28;20864;-68
2022/12/06 08:43:57;;;;;;;9.03;5.63;;;7.20;99.90;;;;;;5036438;28;20214;-69
2022/12/06 08:46:24;;;;;;;7.00;5.50;;;7.00;99.90;;;;;;5038941;28;20521;-71
2022/12/06 08:48:50;;;;;;;7.30;5.03;;;6.90;99.90;;;;;;5037268;28;20434;-71
2022/12/06 08:51:16;;;;;;;8.37;5.47;;;7.00;99.90;;;;;;5020402;28;20891;-71
2022/12/06 08:53:41;;;;;;;8.13;5.70;;;7.20;99.90;;;;;;5035190;28;21021;-72
2022/12/06 08:56:07;;;;;;;7.90;5.53;;;7.20;99.90;;;;;;5037248;28;20183;-69
2022/12/06 08:58:33;;;;;;;6.43;5.63;;;7.20;99.90;;;;;;5031675;28;20253;-69
2022/12/06 09:00:59;;;;;;;6.87;5.00;;;7.20;99.90;;;;;;5034205;28;20990;-70
2022/12/06 09:03:24;;;;;;;8.03;5.20;;;7.30;99.90;;;;;;5036098;28;20327;-69
2022/12/06 09:05:50;;;;;;;8.63;5.47;;;7.30;99.90;;;;;;5034593;28;20189;-69
2022/12/06 09:08:16;;;;;;;8.23;5.83;;;7.40;99.90;;;;;;5034262;28;20188;-69
2022/12/06 09:10:44;;;;;;;7.70;5.77;;;7.30;99.90;;;;;;5032247;28;20223;-70
2022/12/06 09:13:09;;;;;;;7.47;5.17;;;7.30;99.90;;;;;;5034081;28;20716;-72
2022/12/06 09:15:37;;;;;;;7.70;5.10;;;7.30;99.90;;;;;;5033975;28;20542;-70
2022/12/06 09:18:03;;;;;;;8.73;5.80;;;7.30;99.90;;;;;;5034701;28;20291;-70
2022/12/06 09:20:29;;;;;;;6.23;5.03;;;7.20;99.90;;;;;;5037060;28;20546;-70
2022/12/06 09:22:54;;;;;;;7.10;5.50;;;7.30;99.90;;;;;;5031685;28;20192;-70
2022/12/06 09:25:20;;;;;;;6.20;4.97;;;7.20;99.90;;;;;;5034282;28;20567;-71
2022/12/06 09:27:46;;;;;;;8.43;5.77;;;7.30;99.90;;;;;;5036571;28;20233;-69
2022/12/06 09:30:13;;;;;;;6.60;5.27;;;7.30;99.90;;;;;;5036926;28;20195;-70
2022/12/06 09:32:38;;;;;;;7.37;5.10;;;7.20;99.90;;;;;;5017561;28;20474;-71
2022/12/06 09:35:04;;;;;;;9.60;5.57;;;7.10;99.90;;;;;;5032581;28;20881;-72
2022/12/06 09:37:32;;;;;;;8.03;5.70;;;7.10;99.90;;;;;;5036208;28;20192;-70
2022/12/06 09:40:01;;;;;;;8.43;5.60;;;7.10;99.90;;;;;;5015495;28;20454;-70
2022/12/06 09:42:30;;;;;;;10.07;5.43;;;7.00;99.90;;;;;;5021014;28;20438;-71
2022/12/06 09:45:14;;;;;;;5.97;4.70;;;7.00;99.90;;;;;;5034806;28;20889;-71
2022/12/06 09:48:01;;;;;;;7.30;4.30;;;7.10;99.90;;;;;;5034601;28;20430;-71
2022/12/06 09:50:42;;;;;;;6.50;4.50;;;7.10;99.90;;;;;;5036173;28;20499;-72
2022/12/06 09:53:08;;;;;;;6.63;4.63;;;6.90;99.90;;;;;;5032406;28;21018;-68
2022/12/06 09:55:40;;;;;;;7.37;5.43;;;6.90;99.90;;;;;;5033907;28;20521;-69
2022/12/06 09:58:30;;;;;;;6.77;4.80;;;6.70;99.90;;;;;;5035614;28;20641;-70
2022/12/06 10:01:07;;;;;;;8.53;5.77;;;6.70;99.90;;;;;;5033047;28;20507;-69
2022/12/06 10:03:45;;;;;;;7.60;5.60;;;6.70;99.90;;;;;;5032621;28;20482;-70
2022/12/06 10:06:15;;;;;;;7.90;5.47;;;6.60;99.90;;;;;;5035798;28;20819;-70
2022/12/06 10:09:18;;;;;;;7.53;5.63;;;6.60;99.90;;;;;;5033126;28;20502;-72
2022/12/06 10:12:07;;;;;;;6.77;4.60;;;6.70;99.90;;;;;;5034640;28;20445;-70
2022/12/06 10:14:50;;;;;;;7.90;6.00;;;6.90;99.90;;;;;;5034704;28;20531;-71
2022/12/06 10:17:44;;;;;;;7.60;5.40;;;6.80;99.90;;;;;;5030928;28;20434;-71
2022/12/06 10:20:27;;;;;;;6.30;4.53;;;6.90;99.90;;;;;;5038000;28;20827;-71
2022/12/06 10:23:28;;;;;;;6.70;5.03;;;7.00;99.90;;;;;;5031268;28;20438;-70
2022/12/06 10:26:11;;;;;;;7.60;5.30;;;7.10;99.90;;;;;;5005962;28;20837;-73
2022/12/06 10:28:46;;;;;;;7.20;5.00;;;7.10;99.90;;;;;;5033938;28;20446;-73
2022/12/06 10:31:22;;;;;;;7.57;5.00;;;7.20;99.90;;;;;;5034000;28;20433;-72
2022/12/06 10:33:54;;;;;;;8.23;5.17;;;7.20;99.90;;;;;;5035350;28;20473;-73
2022/12/06 10:37:01;;;;;;;5.40;4.53;;;7.10;99.90;;;;;;5038277;28;20879;-72
2022/12/06 10:39:32;;;;;;;7.27;4.47;;;7.10;99.90;;;;;;4992594;28;20525;-71
2022/12/06 10:42:10;;;;;;;6.23;4.73;;;7.10;99.90;;;;;;5017059;28;20443;-72
2022/12/06 10:44:44;;;;;;;13.87;7.57;;;7.10;99.90;;;;;;5034631;28;20538;-71
2022/12/06 10:47:18;;;;;;;7.77;5.57;;;7.00;99.90;;;;;;5035690;28;21007;-71
2022/12/06 10:49:49;;;;;;;7.00;5.47;;;7.00;99.90;;;;;;5034477;28;20811;-70
2022/12/06 10:52:42;;;;;;;8.00;5.60;;;7.00;99.90;;;;;;5034630;28;20449;-70
2022/12/06 10:55:08;;;;;;;8.57;5.60;;;7.00;99.90;;;;;;5033181;28;20899;-70
2022/12/06 10:57:42;;;;;;;8.13;5.00;;;7.00;99.90;;;;;;5036917;28;20545;-70
2022/12/06 11:00:19;;;;;;;6.73;5.20;;;7.00;99.90;;;;;;5034811;28;20179;-70
2022/12/06 11:02:59;;;;;;;6.40;5.37;;;7.00;99.90;;;;;;5032085;28;21566;-73
2022/12/06 11:05:36;;;;;;;6.83;5.40;;;6.90;99.90;;;;;;5036137;28;20818;-68
2022/12/06 11:08:12;;;;;;;6.37;5.10;;;6.90;99.90;;;;;;5031583;28;20438;-71
2022/12/06 11:10:38;;;;;;;9.10;5.87;;;7.00;99.90;;;;;;5035707;28;20418;-71
2022/12/06 11:13:33;;;;;;;7.80;5.53;;;7.00;99.90;;;;;;5016241;28;20553;-71
2022/12/06 11:16:08;;;;;;;8.33;5.27;;;7.10;99.90;;;;;;5032947;28;20525;-71
2022/12/06 11:18:34;;;;;;;7.90;5.17;;;7.10;99.90;;;;;;5032888;28;20528;-71
2022/12/06 11:21:37;;;;;;;8.10;5.87;;;7.20;99.90;;;;;;5032110;28;20975;-72
2022/12/06 11:24:14;;;;;;;9.43;6.20;;;7.20;99.90;;;;;;5030079;28;20439;-72
2022/12/06 11:26:47;;;;;;;11.23;6.27;;;7.20;99.90;;;;;;5034601;28;21177;-69
2022/12/06 11:29:14;;;;;;;9.90;6.40;;;7.10;99.90;;;;;;5016872;28;20450;-71
2022/12/06 11:31:43;;;;;;;7.17;5.13;;;7.00;99.90;;;;;;5032463;28;20443;-72
2022/12/06 11:34:16;;;;;;;6.27;4.80;;;7.10;99.90;;;;;;5033798;28;20962;-71
2022/12/06 11:36:43;;;;;;;8.10;5.33;;;7.10;99.90;;;;;;5029347;28;20438;-73
2022/12/06 11:39:14;;;;;;;6.60;4.93;;;7.10;99.90;;;;;;5033076;28;20947;-71
2022/12/06 11:41:42;;;;;;;7.50;5.00;;;7.10;99.90;;;;;;5035021;28;20449;-72
2022/12/06 11:44:15;;;;;;;7.50;5.73;;;7.20;99.90;;;;;;5030468;28;20454;-72
2022/12/06 11:46:40;;;;;;;7.27;4.73;;;7.10;99.90;;;;;;5032766;28;20472;-73
2022/12/06 11:49:25;;;;;;;7.13;5.57;;;7.10;99.90;;;;;;5035375;28;20438;-72
2022/12/06 11:51:52;;;;;;;7.50;5.80;;;7.10;99.90;;;;;;5034739;28;20192;-71
2022/12/06 11:54:41;;;;;;;8.63;5.80;;;7.20;99.90;;;;;;5032948;28;20536;-71
2022/12/06 11:57:21;;;;;;;7.77;6.13;;;7.10;99.90;;;;;;5035437;28;20428;-73
2022/12/06 12:00:10;;;;;;;6.90;5.40;;;7.20;99.90;;;;;;5029862;28;21018;-73
2022/12/06 12:02:35;;;;;;;7.07;5.40;;;7.20;99.90;;;;;;5034902;28;20800;-72
2022/12/06 12:05:12;;;;;;;6.70;5.10;;;7.10;99.90;;;;;;5038035;28;20465;-72
2022/12/06 12:07:40;;;;;;;8.87;5.00;;;7.20;99.90;;;;;;5017379;28;20193;-71
2022/12/06 12:10:26;;;;;;;8.77;6.40;;;7.10;99.90;;;;;;5036742;28;20449;-72
2022/12/06 12:15:46;;;;;;;9.27;6.60;;;7.00;99.90;;;;;;5039795;28;20444;-72
2022/12/06 12:18:25;;;;;;;6.63;5.60;;;7.10;99.90;;;;;;5037820;28;20422;-72
2022/12/06 12:20:52;;;;;;;8.73;6.03;;;7.30;99.90;;;;;;5040121;28;20492;-72
2022/12/06 12:23:17;;;;;;;7.30;4.97;;;7.30;99.90;;;;;;5039961;28;20423;-75
2022/12/06 12:26:17;;;;;;;9.20;5.73;;;7.40;99.90;;;;;;5034441;28;20448;-76
2022/12/06 12:29:04;;;;;;;15.10;9.30;;;7.40;99.90;;;;;;5034469;28;20199;-76
2022/12/06 12:31:30;;;;;;;6.83;5.57;;;7.40;99.90;;;;;;5023745;28;20450;-75
2022/12/06 12:34:17;;;;;;;9.30;7.77;;;7.30;99.90;;;;;;5032396;28;20476;-75
2022/12/06 12:36:51;;;;;;;8.33;6.00;;;7.30;99.90;;;;;;5035160;28;20813;-72
2022/12/06 12:39:45;;;;;;;8.23;5.90;;;7.40;99.90;;;;;;5010902;28;20923;-72
2022/12/06 12:42:44;;;;;;;6.27;5.20;;;7.40;99.90;;;;;;5032216;28;20442;-72
2022/12/06 12:45:18;;;;;;;7.27;5.67;;;7.50;99.90;;;;;;4983360;28;20520;-72
2022/12/06 12:47:56;;;;;;;8.33;6.37;;;7.50;99.90;;;;;;5035525;28;20492;-71
2022/12/06 12:50:22;;;;;;;6.73;5.10;;;7.50;99.90;;;;;;5034891;28;20426;-72
2022/12/06 12:52:49;;;;;;;8.40;5.83;;;7.50;99.90;;;;;;5034727;28;20505;-72
2022/12/06 12:55:18;;;;;;;7.50;5.80;;;7.60;99.90;;;;;;5019414;28;20476;-72
2022/12/06 12:57:47;;;;;;;6.20;5.57;;;7.70;99.90;;;;;;5032595;28;20438;-71
2022/12/06 13:00:18;;;;;;;7.30;5.17;;;7.50;99.90;;;;;;5030332;28;20434;-72
2022/12/06 13:02:57;;;;;;;7.00;5.60;;;7.60;99.90;;;;;;5034082;28;20465;-72
2022/12/06 13:05:34;;;;;;;6.13;5.03;;;7.70;99.90;;;;;;5027437;28;20462;-72
2022/12/06 13:08:19;;;;;;;7.47;5.97;;;7.80;99.90;;;;;;5019537;28;20438;-72
2022/12/06 13:10:48;;;;;;;6.50;5.33;;;7.70;99.90;;;;;;5035508;28;20435;-72
2022/12/06 13:13:38;;;;;;;7.60;5.60;;;7.70;99.90;;;;;;5036453;28;20546;-72
2022/12/06 13:16:10;;;;;;;9.50;5.90;;;7.70;99.90;;;;;;5032342;28;20473;-72
2022/12/06 13:18:53;;;;;;;8.20;4.80;;;7.70;99.90;;;;;;5019355;28;20445;-72
2022/12/06 13:21:29;;;;;;;5.77;4.77;;;7.70;99.90;;;;;;5025380;28;20455;-72
2022/12/06 13:24:04;;;;;;;6.53;4.70;;;7.80;99.90;;;;;;5032526;28;21204;-72
2022/12/06 13:26:38;;;;;;;6.33;5.10;;;7.80;99.90;;;;;;5036029;28;20448;-73
2022/12/06 13:29:25;;;;;;;6.47;5.33;;;7.80;99.90;;;;;;5033499;28;20417;-72
2022/12/06 13:31:53;;;;;;;9.33;6.43;;;7.90;99.90;;;;;;5031908;28;20446;-71
2022/12/06 13:34:19;;;;;;;7.83;5.50;;;7.90;99.90;;;;;;5008333;28;20479;-73